createdAt,value
2022-11-05T00:03:19.627Z,11.84
2022-11-05T00:06:39.928Z,11.84
2022-11-05T00:09:41.746Z,12.28
2022-11-05T00:13:02.372Z,12.28
2022-11-05T00:16:42.344Z,12.27
2022-11-05T00:19:44.199Z,11.17
2022-11-05T00:23:04.737Z,10.95
2022-11-05T00:26:07.515Z,10.86
2022-11-05T00:29:09.345Z,11.11
2022-11-05T00:32:11.125Z,11.59
2022-11-05T00:35:12.937Z,10.91
2022-11-05T00:38:14.795Z,11.21
2022-11-05T00:41:16.645Z,10.69
2022-11-05T00:44:37.153Z,10.65
2022-11-05T00:47:57.896Z,10.68
2022-11-05T00:50:59.689Z,10.46
2022-11-05T00:54:01.538Z,9.97
2022-11-05T00:57:04.770Z,10.03
2022-11-05T01:00:07.065Z,9.85
2022-11-05T01:03:13.651Z,9.87
2022-11-05T01:06:16.270Z,9.80
2022-11-05T01:09:18.123Z,9.85
2022-11-05T01:12:19.932Z,10.20
2022-11-05T01:15:21.808Z,9.99
2022-11-05T01:18:24.155Z,9.72
2022-11-05T01:21:25.929Z,9.54
2022-11-05T01:24:27.751Z,9.84
2022-11-05T01:27:29.595Z,9.83
2022-11-05T01:30:31.594Z,9.95
2022-11-05T01:33:33.389Z,9.68
2022-11-05T01:36:35.191Z,9.15
2022-11-05T01:39:37.141Z,9.72
2022-11-05T01:42:38.921Z,9.93
2022-11-05T01:45:40.717Z,9.96
2022-11-05T01:48:42.538Z,10.02
2022-11-05T01:51:44.556Z,10.47
2022-11-05T01:54:46.388Z,10.26
2022-11-05T01:57:48.511Z,10.09
2022-11-05T02:00:50.314Z,9.97
2022-11-05T02:03:52.906Z,10.65
2022-11-05T02:06:54.742Z,10.63
2022-11-05T02:10:06.784Z,10.54
2022-11-05T02:13:08.834Z,10.56
2022-11-05T02:16:31.322Z,10.87
2022-11-05T02:19:46.291Z,10.05
2022-11-05T02:23:23.642Z,10.43
2022-11-05T02:26:45.654Z,10.64
2022-11-05T02:30:03.206Z,9.89
2022-11-05T02:33:20.792Z,10.72
2022-11-05T02:36:28.853Z,9.91
2022-11-05T02:39:49.543Z,9.69
2022-11-05T02:43:15.208Z,9.26
2022-11-05T02:46:16.959Z,10.49
2022-11-05T02:49:31.028Z,10.60
2022-11-05T02:52:35.135Z,10.28
2022-11-05T02:55:37.540Z,10.00
2022-11-05T02:58:39.308Z,9.84
2022-11-05T03:01:41.439Z,9.38
2022-11-05T03:04:43.357Z,9.65
2022-11-05T03:07:47.842Z,9.75
2022-11-05T03:10:56.437Z,9.73
2022-11-05T03:14:04.132Z,9.89
2022-11-05T03:17:11.293Z,9.44
2022-11-05T03:20:16.204Z,9.50
2022-11-05T03:23:21.125Z,10.25
2022-11-05T03:26:29.849Z,9.72
2022-11-05T03:29:36.277Z,10.31
2022-11-05T03:32:42.479Z,10.10
2022-11-05T03:35:48.334Z,10.18
2022-11-05T03:38:50.394Z,10.20
2022-11-05T03:41:52.416Z,10.15
2022-11-05T03:44:55.749Z,10.28
2022-11-05T03:47:57.925Z,10.52
2022-11-05T03:51:01.122Z,9.98
2022-11-05T03:54:03.144Z,9.60
2022-11-05T03:57:06.619Z,9.68
2022-11-05T04:00:09.169Z,10.13
2022-11-05T04:03:11.190Z,9.86
2022-11-05T04:06:31.949Z,10.08
2022-11-05T04:09:52.514Z,10.67
2022-11-05T04:13:13.053Z,10.41
2022-11-05T04:16:34.083Z,10.02
2022-11-05T04:19:55.287Z,9.84
2022-11-05T04:23:25.023Z,10.23
2022-11-05T04:26:26.841Z,9.97
2022-11-05T04:29:47.498Z,9.52
2022-11-05T04:32:55.920Z,9.85
2022-11-05T04:35:57.701Z,10.28
2022-11-05T04:38:59.518Z,9.44
2022-11-05T04:42:01.292Z,9.59
2022-11-05T04:45:03.102Z,9.53
2022-11-05T04:48:04.956Z,9.71
2022-11-05T04:51:06.729Z,9.60
2022-11-05T04:54:08.577Z,9.46
2022-11-05T04:57:10.341Z,9.86
2022-11-05T05:00:12.221Z,9.83
2022-11-05T05:03:14.325Z,9.83
2022-11-05T05:06:16.432Z,10.44
2022-11-05T05:09:18.287Z,10.07
2022-11-05T05:12:20.057Z,10.12
2022-11-05T05:15:21.866Z,9.76
2022-11-05T05:18:25.346Z,9.52
2022-11-05T05:21:39.218Z,9.58
2022-11-05T05:24:41.108Z,9.55
2022-11-05T05:27:42.891Z,9.62
2022-11-05T05:30:44.688Z,9.71
2022-11-05T05:33:46.462Z,9.32
2022-11-05T05:36:48.304Z,9.42
2022-11-05T05:39:50.150Z,9.08
2022-11-05T05:42:55.629Z,8.89
2022-11-05T05:45:57.547Z,9.66
2022-11-05T05:48:59.404Z,9.78
2022-11-05T05:52:01.241Z,9.53
2022-11-05T05:55:03.261Z,9.43
2022-11-05T05:58:05.054Z,10.29
2022-11-05T06:01:08.625Z,9.96
2022-11-05T06:04:10.402Z,9.73
2022-11-05T06:07:12.434Z,9.38
2022-11-05T06:10:14.236Z,9.51
2022-11-05T06:13:16.121Z,9.63
2022-11-05T06:16:19.472Z,9.55
2022-11-05T06:19:21.267Z,9.56
2022-11-05T06:22:23.055Z,9.50
2022-11-05T06:25:25.167Z,9.84
2022-11-05T06:28:27.145Z,9.48
2022-11-05T06:31:28.973Z,9.74
2022-11-05T06:34:30.739Z,10.04
2022-11-05T06:37:33.917Z,10.18
2022-11-05T06:40:35.712Z,10.69
2022-11-05T06:43:37.643Z,10.25
2022-11-05T06:46:41.318Z,10.48
2022-11-05T06:49:45.429Z,10.77
2022-11-05T06:52:52.534Z,10.80
2022-11-05T06:55:54.334Z,10.52
2022-11-05T06:58:56.152Z,9.94
2022-11-05T07:01:58.271Z,10.13
2022-11-05T07:05:00.153Z,10.50
2022-11-05T07:08:01.935Z,9.88
2022-11-05T07:11:04.092Z,10.30
2022-11-05T07:14:05.979Z,10.93
2022-11-05T07:17:07.809Z,10.78
2022-11-05T07:20:10.737Z,10.51
2022-11-05T07:23:13.562Z,11.41
2022-11-05T07:26:15.539Z,10.61
2022-11-05T07:29:17.340Z,10.74
2022-11-05T07:32:19.111Z,10.98
2022-11-05T07:35:21.007Z,10.90
2022-11-05T07:38:22.817Z,10.67
2022-11-05T07:41:24.655Z,10.78
2022-11-05T07:44:26.636Z,11.09
2022-11-05T07:47:28.498Z,11.48
2022-11-05T07:50:31.298Z,11.62
2022-11-05T07:53:33.121Z,11.94
2022-11-05T07:56:34.913Z,11.63
2022-11-05T07:59:36.921Z,11.92
2022-11-05T08:02:38.966Z,12.29
2022-11-05T08:05:43.298Z,12.02
2022-11-05T08:08:45.077Z,11.52
2022-11-05T08:11:46.942Z,11.89
2022-11-05T08:14:48.747Z,11.28
2022-11-05T08:17:50.559Z,12.07
2022-11-05T08:20:52.368Z,11.97
2022-11-05T08:23:54.200Z,12.14
2022-11-05T08:26:56.248Z,12.27
2022-11-05T08:29:58.034Z,12.59
2022-11-05T08:33:00.886Z,11.75
2022-11-05T08:36:03.565Z,12.02
2022-11-05T08:39:05.357Z,12.35
2022-11-05T08:42:07.135Z,12.09
2022-11-05T08:45:09.170Z,12.59
2022-11-05T08:48:12.096Z,12.28
2022-11-05T08:51:13.871Z,12.69
2022-11-05T08:54:15.755Z,11.98
2022-11-05T08:57:17.568Z,11.17
2022-11-05T09:00:19.380Z,11.70
2022-11-05T09:03:21.264Z,12.90
2022-11-05T09:06:23.272Z,13.17
2022-11-05T09:09:25.248Z,13.14
2022-11-05T09:12:27.069Z,12.94
2022-11-05T09:15:29.156Z,12.90
2022-11-05T09:18:30.980Z,13.59
2022-11-05T09:21:32.787Z,12.76
2022-11-05T09:24:34.558Z,12.48
2022-11-05T09:27:36.336Z,12.16
2022-11-05T09:30:41.790Z,11.81
2022-11-05T09:33:43.644Z,12.81
2022-11-05T09:36:45.442Z,12.60
2022-11-05T09:39:47.222Z,12.99
2022-11-05T09:42:52.383Z,12.52
2022-11-05T09:45:54.826Z,12.30
2022-11-05T09:49:04.300Z,12.41
2022-11-05T09:52:06.353Z,12.71
2022-11-05T09:55:27.850Z,13.21
2022-11-05T09:58:44.299Z,12.90
2022-11-05T10:01:46.747Z,13.46
2022-11-05T10:04:49.631Z,12.83
2022-11-05T10:07:54.643Z,13.48
2022-11-05T10:11:01.471Z,13.25
2022-11-05T10:14:06.467Z,13.43
2022-11-05T10:17:10.299Z,12.95
2022-11-05T10:20:30.864Z,13.50
2022-11-05T10:23:32.754Z,13.43
2022-11-05T10:26:34.567Z,13.31
2022-11-05T10:29:36.588Z,12.85
2022-11-05T10:32:40.681Z,14.01
2022-11-05T10:35:46.703Z,13.88
2022-11-05T10:38:48.691Z,13.26
2022-11-05T10:41:59.678Z,13.24
2022-11-05T10:45:04.686Z,13.88
2022-11-05T10:48:24.941Z,13.65
2022-11-05T10:51:26.817Z,13.01
2022-11-05T10:54:30.698Z,13.50
2022-11-05T10:57:36.628Z,13.74
2022-11-05T11:00:38.668Z,13.62
2022-11-05T11:03:44.685Z,13.77
2022-11-05T11:07:04.632Z,13.37
2022-11-05T11:10:06.544Z,13.71
2022-11-05T11:13:21.665Z,13.76
2022-11-05T11:16:24.748Z,13.90
2022-11-05T11:19:33.797Z,14.79
2022-11-05T11:22:35.641Z,14.37
2022-11-05T11:25:40.747Z,13.98
2022-11-05T11:28:50.969Z,14.46
2022-11-05T11:31:56.403Z,14.91
2022-11-05T11:34:58.470Z,13.00
2022-11-05T11:38:01.082Z,13.87
2022-11-05T11:41:42.014Z,13.74
2022-11-05T11:44:44.852Z,14.55
2022-11-05T11:47:47.370Z,14.36
2022-11-05T11:50:49.331Z,13.69
2022-11-05T11:53:51.194Z,13.95
2022-11-05T11:56:53.032Z,14.81
2022-11-05T12:00:08.433Z,14.58
2022-11-05T12:03:23.291Z,14.13
2022-11-05T12:06:34.320Z,14.49
2022-11-05T12:09:59.358Z,13.58
2022-11-05T12:13:16.886Z,13.82
2022-11-05T12:16:26.910Z,13.43
2022-11-05T12:19:35.018Z,13.69
2022-11-05T12:22:46.084Z,13.96
2022-11-05T12:26:04.088Z,14.55
2022-11-05T12:29:19.356Z,14.37
2022-11-05T12:32:24.520Z,13.82
2022-11-05T12:35:42.838Z,14.21
2022-11-05T12:38:52.170Z,14.18
2022-11-05T12:42:03.112Z,13.95
2022-11-05T12:45:12.564Z,13.66
2022-11-05T12:48:32.803Z,13.79
2022-11-05T12:51:41.335Z,14.30
2022-11-05T12:54:43.183Z,14.39
2022-11-05T12:57:45.779Z,13.78
2022-11-05T13:00:49.031Z,14.56
2022-11-05T13:03:52.527Z,13.95
2022-11-05T13:06:54.979Z,13.70
2022-11-05T13:09:58.847Z,13.39
2022-11-05T13:13:20.874Z,14.14
2022-11-05T13:16:24.888Z,14.32
2022-11-05T13:19:27.827Z,14.38
2022-11-05T13:22:33.555Z,13.58
2022-11-05T13:25:36.160Z,13.85
2022-11-05T13:28:40.933Z,13.69
2022-11-05T13:31:48.901Z,13.80
2022-11-05T13:34:57.259Z,13.21
2022-11-05T13:38:20.732Z,13.82
2022-11-05T13:41:28.293Z,13.77
2022-11-05T13:44:30.051Z,13.54
2022-11-05T13:47:37.903Z,13.83
2022-11-05T13:50:58.427Z,13.33
2022-11-05T13:54:18.212Z,13.15
2022-11-05T13:57:23.102Z,13.56
2022-11-05T14:00:26.975Z,13.57
2022-11-05T14:03:28.809Z,13.39
2022-11-05T14:06:36.984Z,13.59
2022-11-05T14:09:39.045Z,13.71
2022-11-05T14:12:40.836Z,13.51
2022-11-05T14:15:52.310Z,13.11
2022-11-05T14:18:55.845Z,13.34
2022-11-05T14:21:58.025Z,13.06
2022-11-05T14:25:00.517Z,13.24
2022-11-05T14:28:02.378Z,12.84
2022-11-05T14:31:13.304Z,12.40
2022-11-05T14:34:15.145Z,13.10
2022-11-05T14:37:16.857Z,13.45
2022-11-05T14:40:21.449Z,13.14
2022-11-05T14:43:24.384Z,13.46
2022-11-05T14:46:35.019Z,12.51
2022-11-05T14:49:37.817Z,12.47
2022-11-05T14:52:40.120Z,13.08
2022-11-05T14:55:42.379Z,12.51
2022-11-05T14:58:44.729Z,12.38
2022-11-05T15:01:46.605Z,12.96
2022-11-05T15:04:50.615Z,12.57
2022-11-05T15:07:55.976Z,13.35
2022-11-05T15:11:14.683Z,13.12
2022-11-05T15:14:16.451Z,13.58
2022-11-05T15:17:20.364Z,12.82
2022-11-05T15:20:22.716Z,12.76
2022-11-05T15:23:25.690Z,13.35
2022-11-05T15:26:36.607Z,13.27
2022-11-05T15:29:38.441Z,12.90
2022-11-05T15:32:40.282Z,12.47
2022-11-05T15:35:42.509Z,12.38
2022-11-05T15:39:01.999Z,12.66
2022-11-05T15:42:07.434Z,12.81
2022-11-05T15:45:18.206Z,12.31
2022-11-05T15:48:20.063Z,12.45
2022-11-05T15:51:22.821Z,12.33
2022-11-05T15:54:30.068Z,12.25
2022-11-05T15:57:32.602Z,12.05
2022-11-05T16:00:35.007Z,11.86
2022-11-05T16:03:37.503Z,12.99
2022-11-05T16:06:40.082Z,12.82
2022-11-05T16:09:43.696Z,12.09
2022-11-05T16:12:46.051Z,11.95
2022-11-05T16:15:58.084Z,12.40
2022-11-05T16:18:59.976Z,12.52
2022-11-05T16:22:02.324Z,12.82
2022-11-05T16:25:20.981Z,12.29
2022-11-05T16:28:26.903Z,12.96
2022-11-05T16:31:29.830Z,11.68
2022-11-05T16:34:31.695Z,12.88
2022-11-05T16:37:39.742Z,12.47
2022-11-05T16:40:41.633Z,12.31
2022-11-05T16:43:50.778Z,12.56
2022-11-05T16:46:52.596Z,12.57
2022-11-05T16:49:54.402Z,12.06
2022-11-05T16:52:56.396Z,12.13
2022-11-05T16:55:58.186Z,12.07
2022-11-05T16:59:00.152Z,11.92
2022-11-05T17:02:02.088Z,11.83
2022-11-05T17:05:03.954Z,11.53
2022-11-05T17:08:05.757Z,11.78
2022-11-05T17:11:07.592Z,11.32
2022-11-05T17:14:09.772Z,12.05
2022-11-05T17:17:11.586Z,11.57
2022-11-05T17:20:21.986Z,12.06
2022-11-05T17:23:26.625Z,11.62
2022-11-05T17:26:28.451Z,11.91
2022-11-05T17:29:30.250Z,12.17
2022-11-05T17:32:32.090Z,11.49
2022-11-05T17:35:33.918Z,11.38
2022-11-05T17:38:35.735Z,11.29
2022-11-05T17:41:37.566Z,11.63
2022-11-05T17:44:39.375Z,11.35
2022-11-05T17:47:42.197Z,11.46
2022-11-05T17:50:44.804Z,11.12
2022-11-05T17:53:47.385Z,10.89
2022-11-05T17:56:49.194Z,11.22
2022-11-05T17:59:51.025Z,11.17
2022-11-05T18:02:53.321Z,11.05
2022-11-05T18:06:00.577Z,10.97
2022-11-05T18:09:02.389Z,11.11
2022-11-05T18:12:04.349Z,11.38
2022-11-05T18:15:06.467Z,11.30
2022-11-05T18:18:08.414Z,10.97
2022-11-05T18:21:10.256Z,11.29
2022-11-05T18:24:12.224Z,11.44
2022-11-05T18:27:14.046Z,11.50
2022-11-05T18:30:16.060Z,11.95
2022-11-05T18:33:17.871Z,11.59
2022-11-05T18:36:20.452Z,11.53
2022-11-05T18:39:22.307Z,11.47
2022-11-05T18:42:25.305Z,11.79
2022-11-05T18:45:29.873Z,11.59
2022-11-05T18:48:32.207Z,11.42
2022-11-05T18:51:33.987Z,11.69
2022-11-05T18:54:35.821Z,11.89
2022-11-05T18:57:37.706Z,11.45
2022-11-05T19:00:39.872Z,11.38
2022-11-05T19:03:41.724Z,11.30
2022-11-05T19:06:43.555Z,11.69
2022-11-05T19:09:45.429Z,11.92
2022-11-05T19:12:47.322Z,12.45
2022-11-05T19:15:49.121Z,12.61
2022-11-05T19:18:51.197Z,12.27
2022-11-05T19:21:53.006Z,12.74
2022-11-05T19:24:54.847Z,11.93
2022-11-05T19:27:58.571Z,11.48
2022-11-05T19:31:00.368Z,11.58
2022-11-05T19:34:03.216Z,11.45
2022-11-05T19:37:08.099Z,12.15
2022-11-05T19:40:10.380Z,11.89
2022-11-05T19:43:12.167Z,11.80
2022-11-05T19:46:15.817Z,12.05
2022-11-05T19:49:17.630Z,11.93
2022-11-05T19:52:19.429Z,11.11
2022-11-05T19:55:21.316Z,11.30
2022-11-05T19:58:23.212Z,11.36
2022-11-05T20:01:25.917Z,11.44
2022-11-05T20:04:27.803Z,11.09
2022-11-05T20:07:30.099Z,11.65
2022-11-05T20:10:32.283Z,11.28
2022-11-05T20:13:34.282Z,11.21
2022-11-05T20:16:40.217Z,11.10
2022-11-05T20:19:42.105Z,11.58
2022-11-05T20:22:43.912Z,12.17
2022-11-05T20:25:45.713Z,11.53
2022-11-05T20:28:47.538Z,10.99
2022-11-05T20:31:49.503Z,11.22
2022-11-05T20:34:51.309Z,11.29
2022-11-05T20:37:54.401Z,10.88
2022-11-05T20:40:56.382Z,11.50
2022-11-05T20:43:58.163Z,11.69
2022-11-05T20:46:59.997Z,11.70
2022-11-05T20:50:03.960Z,11.67
2022-11-05T20:53:05.774Z,11.80
2022-11-05T20:56:10.532Z,11.31
2022-11-05T20:59:12.371Z,11.64
2022-11-05T21:02:14.321Z,12.00
2022-11-05T21:05:16.326Z,12.27
2022-11-05T21:08:20.092Z,11.08
2022-11-05T21:11:21.943Z,11.66
2022-11-05T21:14:23.761Z,11.93
2022-11-05T21:17:25.626Z,12.26
2022-11-05T21:20:27.455Z,12.13
2022-11-05T21:23:29.319Z,12.00
2022-11-05T21:26:33.566Z,11.90
2022-11-05T21:29:35.371Z,11.86
2022-11-05T21:32:37.176Z,11.55
2022-11-05T21:35:44.140Z,11.44
2022-11-05T21:38:45.960Z,11.97
2022-11-05T21:41:47.795Z,11.28
2022-11-05T21:44:49.766Z,11.65
2022-11-05T21:47:51.595Z,11.51
2022-11-05T21:51:11.894Z,10.92
2022-11-05T21:54:32.499Z,11.60
2022-11-05T21:57:53.089Z,11.73
2022-11-05T22:00:54.948Z,11.32
2022-11-05T22:04:02.670Z,11.39
2022-11-05T22:07:05.264Z,11.08
2022-11-05T22:10:13.176Z,11.70
2022-11-05T22:13:17.580Z,11.48
2022-11-05T22:16:19.392Z,11.38
2022-11-05T22:19:21.584Z,11.20
2022-11-05T22:22:23.415Z,11.50
2022-11-05T22:25:25.306Z,10.84
2022-11-05T22:28:27.134Z,11.41
2022-11-05T22:31:34.746Z,11.56
2022-11-05T22:34:37.944Z,11.27
2022-11-05T22:37:39.781Z,11.70
2022-11-05T22:40:41.605Z,11.93
2022-11-05T22:43:43.677Z,11.76
2022-11-05T22:46:45.483Z,12.19
2022-11-05T22:49:48.943Z,11.90
2022-11-05T22:52:50.728Z,11.79
2022-11-05T22:55:52.555Z,11.64
2022-11-05T22:58:54.456Z,11.93
2022-11-05T23:01:56.407Z,11.64
2022-11-05T23:04:58.270Z,11.89
2022-11-05T23:08:18.649Z,11.09
2022-11-05T23:11:38.599Z,11.65
2022-11-05T23:14:40.464Z,11.73
2022-11-05T23:18:00.783Z,11.95
2022-11-05T23:21:23.137Z,11.14
2022-11-05T23:24:25.125Z,11.38
2022-11-05T23:27:30.714Z,11.78
2022-11-05T23:30:32.559Z,11.70
2022-11-05T23:33:34.688Z,11.90
2022-11-05T23:36:55.274Z,10.97
2022-11-05T23:39:57.120Z,11.42
2022-11-05T23:43:17.522Z,11.49
2022-11-05T23:46:37.726Z,11.92
2022-11-05T23:49:39.537Z,11.92
2022-11-05T23:52:41.347Z,11.77
2022-11-05T23:55:43.172Z,11.16
2022-11-05T23:58:44.979Z,11.57
